Asia Ruby IV — 9V2667 — position and weather

sailwx.info

Track history (hours):
 
Tides and Currents Weather Stations Pressure Air Temp Water Temp Dewpoint Dewpoint Depression Visibility Wind Speed Wind Dir Waves Ship Positions

Asia Ruby IV

Last reported at 2018-May-11 10:08 UTC. Time now 2018-May-25 11:07 UTC.
Position N 41°38' E 141°23'.
Warning: this ship's position is 14 days out of date.

Length 200 m; draft 7.6 m.

Type: Ship. MMSI: 564515000.

Date/timePositionNaut miles runAvg speedWind from/ knotsBaromVisibWave heightAir tempDewpointWater temp
2018-May-11 10:08N 41°38' E 141°23'212.1
2018-May-11 10:00N 41°37' E 141°21'612.7
2018-May-11 09:30N 41°38' E 141°13'714.5
2018-May-11 09:00N 41°38' E 141°03'815.4
2018-May-11 08:30N 41°38' E 140°53'714.4
2018-May-11 08:01N 41°34' E 140°45'714.4
2018-May-11 07:31N 41°30' E 140°38'816.1
2018-May-11 07:00N 41°25' E 140°29'815.2
2018-May-11 06:29N 41°20' E 140°21'  
2018-May-06 22:01N 37°31' E 123°05'013.7
2018-May-06 22:00N 37°31' E 123°05'612.9
2018-May-06 21:30N 37°35' E 122°58'713.0
2018-May-06 21:00N 37°38' E 122°51'613.0
2018-May-06 20:30N 37°41' E 122°44'713.1
2018-May-06 20:00N 37°45' E 122°37'713.1
2018-May-06 19:30N 37°49' E 122°30'612.9
2018-May-06 19:00N 37°52' E 122°23'613.0
2018-May-06 18:30N 37°55' E 122°16'612.8
2018-May-06 18:00N 37°58' E 122°08'612.7
2018-May-06 17:30N 38°01' E 122°01'812.8
2018-May-06 16:52N 38°05' E 121°52'812.7
2018-May-06 16:16N 38°08' E 121°44'412.8
2018-May-06 15:57N 38°10' E 121°39'612.7
2018-May-06 15:30N 38°14' E 121°34'713.0
2018-May-06 15:00N 38°18' E 121°27'713.1
2018-May-06 14:29N 38°21' E 121°20'613.0
2018-May-06 14:00N 38°24' E 121°13'612.7
2018-May-06 13:30N 38°27' E 121°06'612.6
2018-May-06 13:00N 38°30' E 120°58'612.4
2018-May-06 12:29N 38°33' E 120°51'612.2
2018-May-06 11:58N 38°35' E 120°43'611.8
2018-May-06 11:29N 38°35' E 120°36'611.7
2018-May-06 10:58N 38°36' E 120°28'511.2
2018-May-06 10:30N 38°37' E 120°22'611.2
2018-May-06 10:00N 38°37' E 120°15'510.9
2018-May-06 09:30N 38°38' E 120°08'510.7
2018-May-06 09:00N 38°39' E 120°01'810.8
2018-May-06 08:18N 38°40' E 119°52'  
2018-May-03 14:19N 38°44' E 119°36'411.4
2018-May-03 14:00N 38°43' E 119°41'4411.3
2018-May-03 10:04N 38°38' E 120°37'211.5
2018-May-03 09:53N 38°37' E 120°40'511.6
2018-May-03 09:30N 38°37' E 120°46'912.1
2018-May-03 08:47N 38°36' E 120°57'2112.8
2018-May-03 07:09N 38°26' E 121°19'212.7
2018-May-03 07:00N 38°25' E 121°22'1012.6
2018-May-03 06:13N 38°20' E 121°33'512.3
2018-May-03 05:51N 38°17' E 121°37'412.4
2018-May-03 05:29N 38°15' E 121°42'612.5
2018-May-03 05:00N 38°12' E 121°49'612.1
2018-May-03 04:30N 38°10' E 121°56'611.9
2018-May-03 04:00N 38°07' E 122°03'612.0
2018-May-03 03:30N 38°04' E 122°09'3411.3
2018-May-03 00:31N 37°46' E 122°45'013.3
2018-May-03 00:29N 37°45' E 122°46'  
Track history (hours):
 
Tides and Currents Weather Stations Pressure Air Temp Water Temp Dewpoint Dewpoint Depression Visibility Wind Speed Wind Dir Waves Ship Positions

Asia Ruby IV

Last reported at 2018-May-11 10:08 UTC. Time now 2018-May-25 11:07 UTC.
Position N 41°38' E 141°23'.
Warning: this ship's position is 14 days out of date.

Length 200 m; draft 7.6 m.

Type: Ship. MMSI: 564515000.

Date/timePositionNaut miles runAvg speedWind from/ knotsBaromVisibWave heightAir tempDewpointWater temp
2018-May-11 10:08N 41°38' E 141°23'212.1
2018-May-11 10:00N 41°37' E 141°21'612.7
2018-May-11 09:30N 41°38' E 141°13'714.5
2018-May-11 09:00N 41°38' E 141°03'815.4
2018-May-11 08:30N 41°38' E 140°53'714.4
2018-May-11 08:01N 41°34' E 140°45'714.4
2018-May-11 07:31N 41°30' E 140°38'816.1
2018-May-11 07:00N 41°25' E 140°29'815.2
2018-May-11 06:29N 41°20' E 140°21'  
2018-May-06 22:01N 37°31' E 123°05'013.7
2018-May-06 22:00N 37°31' E 123°05'612.9
2018-May-06 21:30N 37°35' E 122°58'713.0
2018-May-06 21:00N 37°38' E 122°51'613.0
2018-May-06 20:30N 37°41' E 122°44'713.1
2018-May-06 20:00N 37°45' E 122°37'713.1
2018-May-06 19:30N 37°49' E 122°30'612.9
2018-May-06 19:00N 37°52' E 122°23'613.0
2018-May-06 18:30N 37°55' E 122°16'612.8
2018-May-06 18:00N 37°58' E 122°08'612.7
2018-May-06 17:30N 38°01' E 122°01'812.8
2018-May-06 16:52N 38°05' E 121°52'812.7
2018-May-06 16:16N 38°08' E 121°44'412.8
2018-May-06 15:57N 38°10' E 121°39'612.7
2018-May-06 15:30N 38°14' E 121°34'713.0
2018-May-06 15:00N 38°18' E 121°27'713.1
2018-May-06 14:29N 38°21' E 121°20'613.0
2018-May-06 14:00N 38°24' E 121°13'612.7
2018-May-06 13:30N 38°27' E 121°06'612.6
2018-May-06 13:00N 38°30' E 120°58'612.4
2018-May-06 12:29N 38°33' E 120°51'612.2
2018-May-06 11:58N 38°35' E 120°43'611.8
2018-May-06 11:29N 38°35' E 120°36'611.7
2018-May-06 10:58N 38°36' E 120°28'511.2
2018-May-06 10:30N 38°37' E 120°22'611.2
2018-May-06 10:00N 38°37' E 120°15'510.9
2018-May-06 09:30N 38°38' E 120°08'510.7
2018-May-06 09:00N 38°39' E 120°01'810.8
2018-May-06 08:18N 38°40' E 119°52'  
2018-May-03 14:19N 38°44' E 119°36'411.4
2018-May-03 14:00N 38°43' E 119°41'4411.3
2018-May-03 10:04N 38°38' E 120°37'211.5
2018-May-03 09:53N 38°37' E 120°40'511.6
2018-May-03 09:30N 38°37' E 120°46'912.1
2018-May-03 08:47N 38°36' E 120°57'2112.8
2018-May-03 07:09N 38°26' E 121°19'212.7
2018-May-03 07:00N 38°25' E 121°22'1012.6
2018-May-03 06:13N 38°20' E 121°33'512.3
2018-May-03 05:51N 38°17' E 121°37'412.4
2018-May-03 05:29N 38°15' E 121°42'612.5
2018-May-03 05:00N 38°12' E 121°49'612.1
2018-May-03 04:30N 38°10' E 121°56'611.9
2018-May-03 04:00N 38°07' E 122°03'612.0
2018-May-03 03:30N 38°04' E 122°09'3411.3
2018-May-03 00:31N 37°46' E 122°45'013.3
2018-May-03 00:29N 37°45' E 122°46'  

Dump ship's entire track history